createdAt,value
2023-01-06T00:02:10.273Z,11.00
2023-01-06T00:04:56.353Z,10.90
2023-01-06T00:07:43.965Z,10.90
2023-01-06T00:10:29.565Z,10.80
2023-01-06T00:13:15.303Z,10.80
2023-01-06T00:16:10.845Z,10.70
2023-01-06T00:18:57.696Z,10.70
2023-01-06T00:21:43.295Z,10.70
2023-01-06T00:24:29.264Z,10.70
2023-01-06T00:27:15.041Z,10.70
2023-01-06T00:30:00.504Z,10.60
2023-01-06T00:32:46.115Z,10.60
2023-01-06T00:35:31.524Z,10.60
2023-01-06T00:38:17.339Z,10.60
2023-01-06T00:41:25.713Z,10.60
2023-01-06T00:44:11.398Z,10.50
2023-01-06T00:46:57.373Z,10.40
2023-01-06T00:49:43.196Z,10.40
2023-01-06T00:52:28.861Z,10.30
2023-01-06T00:55:14.340Z,10.30
2023-01-06T00:58:01.295Z,9.90
2023-01-06T01:00:46.933Z,9.90
2023-01-06T01:03:34.137Z,9.90
2023-01-06T01:06:19.646Z,9.90
2023-01-06T01:09:06.773Z,9.90
2023-01-06T01:12:11.688Z,9.80
2023-01-06T01:14:57.801Z,9.80
2023-01-06T01:17:43.522Z,9.70
2023-01-06T01:20:29.047Z,9.60
2023-01-06T01:23:14.636Z,9.50
2023-01-06T01:26:00.128Z,9.50
2023-01-06T01:28:45.503Z,9.50
2023-01-06T01:31:31.862Z,9.50
2023-01-06T01:34:18.921Z,9.50
2023-01-06T01:37:04.705Z,9.50
2023-01-06T01:39:50.161Z,9.50
2023-01-06T01:42:35.812Z,9.50
2023-01-06T01:45:27.831Z,9.50
2023-01-06T01:48:28.652Z,9.50
2023-01-06T01:51:19.709Z,9.50
2023-01-06T01:54:12.586Z,9.60
2023-01-06T01:57:13.635Z,9.60
2023-01-06T01:59:59.902Z,9.60
2023-01-06T02:02:45.740Z,9.60
2023-01-06T02:05:34.224Z,9.60
2023-01-06T02:08:35.294Z,9.50
2023-01-06T02:11:23.344Z,9.50
2023-01-06T02:14:23.843Z,9.40
2023-01-06T02:17:15.063Z,9.30
2023-01-06T02:20:09.826Z,9.20
2023-01-06T02:23:22.962Z,9.10
2023-01-06T02:26:33.765Z,9.10
2023-01-06T02:29:45.546Z,9.10
2023-01-06T02:32:53.141Z,9.10
2023-01-06T02:35:48.514Z,9.10
2023-01-06T02:39:01.077Z,9.20
2023-01-06T02:41:59.009Z,9.20
2023-01-06T02:44:55.696Z,9.20
2023-01-06T02:48:03.617Z,9.30
2023-01-06T02:51:05.781Z,9.20
2023-01-06T02:53:57.766Z,9.20
2023-01-06T02:56:49.619Z,9.10
2023-01-06T02:59:42.121Z,9.10
2023-01-06T03:02:32.110Z,9.00
2023-01-06T03:05:18.165Z,9.00
2023-01-06T03:08:13.225Z,9.00
2023-01-06T03:11:00.696Z,9.00
2023-01-06T03:13:51.136Z,8.90
2023-01-06T03:16:37.493Z,8.90
2023-01-06T03:19:24.045Z,8.90
2023-01-06T03:22:12.177Z,8.90
2023-01-06T03:25:01.072Z,8.90
2023-01-06T03:27:46.636Z,8.90
2023-01-06T03:31:09.520Z,8.90
2023-01-06T03:34:04.950Z,8.90
2023-01-06T03:37:16.443Z,8.90
2023-01-06T03:40:26.382Z,9.00
2023-01-06T03:43:54.313Z,9.00
2023-01-06T03:46:47.208Z,8.90
2023-01-06T03:49:41.784Z,8.80
2023-01-06T03:52:32.431Z,8.90
2023-01-06T03:55:22.207Z,8.80
2023-01-06T03:58:10.826Z,8.90
2023-01-06T04:00:57.517Z,8.80
2023-01-06T04:03:47.090Z,8.80
2023-01-06T04:06:32.989Z,8.80
2023-01-06T04:09:21.838Z,9.10
2023-01-06T04:12:26.072Z,8.90
2023-01-06T04:15:15.879Z,9.00
2023-01-06T04:18:03.752Z,9.10
2023-01-06T04:20:52.498Z,9.10
2023-01-06T04:23:43.956Z,9.30
2023-01-06T04:26:29.542Z,9.40
2023-01-06T04:29:15.341Z,9.60
2023-01-06T04:32:00.992Z,9.70
2023-01-06T04:34:46.562Z,9.80
2023-01-06T04:37:32.507Z,9.90
2023-01-06T04:40:18.000Z,10.00
2023-01-06T04:43:06.442Z,10.10
2023-01-06T04:45:52.538Z,10.10
2023-01-06T04:48:38.304Z,10.20
2023-01-06T04:51:24.029Z,10.20
2023-01-06T04:54:09.732Z,10.20
2023-01-06T04:56:55.460Z,10.30
2023-01-06T04:59:40.957Z,10.30
2023-01-06T05:02:26.453Z,10.30
2023-01-06T05:05:12.573Z,10.30
2023-01-06T05:07:58.081Z,10.30
2023-01-06T05:10:43.661Z,10.40
2023-01-06T05:13:31.694Z,10.40
2023-01-06T05:16:38.349Z,10.40
2023-01-06T05:19:24.038Z,10.40
2023-01-06T05:22:09.415Z,10.40
2023-01-06T05:24:54.880Z,10.40
2023-01-06T05:27:40.247Z,10.40
2023-01-06T05:30:25.901Z,10.40
2023-01-06T05:33:11.524Z,10.40
2023-01-06T05:36:01.625Z,10.40
2023-01-06T05:38:56.639Z,10.40
2023-01-06T05:41:42.108Z,10.40
2023-01-06T05:44:27.754Z,10.40
2023-01-06T05:47:13.278Z,10.40
2023-01-06T05:49:58.759Z,10.40
2023-01-06T05:52:44.540Z,10.40
2023-01-06T05:55:30.129Z,10.40
2023-01-06T05:58:15.821Z,10.40
2023-01-06T06:01:01.885Z,10.30
2023-01-06T06:03:48.372Z,10.40
2023-01-06T06:06:34.196Z,10.40
2023-01-06T06:09:19.733Z,10.50
2023-01-06T06:12:05.572Z,10.50
2023-01-06T06:14:51.306Z,10.60
2023-01-06T06:17:36.714Z,10.60
2023-01-06T06:20:22.838Z,10.60
2023-01-06T06:23:08.395Z,10.70
2023-01-06T06:25:53.990Z,10.70
2023-01-06T06:28:40.665Z,10.70
2023-01-06T06:31:28.185Z,10.70
2023-01-06T06:34:13.788Z,10.70
2023-01-06T06:36:59.235Z,10.80
2023-01-06T06:39:44.768Z,10.80
2023-01-06T06:42:30.418Z,10.80
2023-01-06T06:45:15.830Z,10.80
2023-01-06T06:48:01.418Z,10.80
2023-01-06T06:50:46.991Z,10.80
2023-01-06T06:53:33.875Z,10.70
2023-01-06T06:56:20.676Z,10.70
2023-01-06T06:59:06.465Z,10.60
2023-01-06T07:01:52.092Z,10.70
2023-01-06T07:04:38.005Z,10.70
2023-01-06T07:07:23.582Z,10.80
2023-01-06T07:10:14.303Z,10.80
2023-01-06T07:13:00.160Z,10.80
2023-01-06T07:15:45.847Z,10.80
2023-01-06T07:18:31.770Z,10.80
2023-01-06T07:21:17.372Z,10.80
2023-01-06T07:24:02.792Z,10.80
2023-01-06T07:26:48.280Z,10.70
2023-01-06T07:29:33.868Z,10.80
2023-01-06T07:32:19.415Z,10.80
2023-01-06T07:35:05.275Z,10.80
2023-01-06T07:37:50.740Z,10.80
2023-01-06T07:40:37.113Z,10.90
2023-01-06T07:43:22.780Z,10.80
2023-01-06T07:46:09.453Z,10.80
2023-01-06T07:48:55.099Z,10.80
2023-01-06T07:51:40.747Z,10.80
2023-01-06T07:54:26.187Z,10.80
2023-01-06T07:57:11.939Z,10.90
2023-01-06T07:59:57.854Z,10.90
2023-01-06T08:02:43.740Z,11.00
2023-01-06T08:05:29.249Z,10.90
2023-01-06T08:08:14.739Z,10.90
2023-01-06T08:11:00.310Z,11.00
2023-01-06T08:13:45.921Z,11.00
2023-01-06T08:16:31.562Z,11.00
2023-01-06T08:19:17.089Z,11.10
2023-01-06T08:22:02.693Z,11.10
2023-01-06T08:24:48.346Z,11.10
2023-01-06T08:27:33.849Z,11.20
2023-01-06T08:30:21.313Z,11.20
2023-01-06T08:33:07.414Z,11.20
2023-01-06T08:36:02.194Z,11.20
2023-01-06T08:38:48.508Z,11.20
2023-01-06T08:41:34.322Z,11.20
2023-01-06T08:44:20.469Z,11.30
2023-01-06T08:47:05.910Z,11.30
2023-01-06T08:49:51.593Z,11.30
2023-01-06T08:52:37.283Z,11.30
2023-01-06T08:55:22.877Z,11.30
2023-01-06T08:58:09.565Z,11.30
2023-01-06T09:00:55.344Z,11.30
2023-01-06T09:03:41.931Z,11.40
2023-01-06T09:06:28.352Z,11.40
2023-01-06T09:09:14.411Z,11.40
2023-01-06T09:12:00.093Z,11.40
2023-01-06T09:14:45.586Z,11.40
2023-01-06T09:17:32.221Z,11.40
2023-01-06T09:20:18.087Z,11.40
2023-01-06T09:23:05.183Z,11.40
2023-01-06T09:25:50.897Z,11.50
2023-01-06T09:28:36.764Z,11.50
2023-01-06T09:31:22.370Z,11.50
2023-01-06T09:34:08.138Z,11.60
2023-01-06T09:36:55.049Z,11.60
2023-01-06T09:39:41.030Z,11.70
2023-01-06T09:42:32.073Z,11.70
2023-01-06T09:45:32.479Z,11.70
2023-01-06T09:48:25.600Z,11.80
2023-01-06T09:51:17.755Z,11.80
2023-01-06T09:54:19.150Z,11.80
2023-01-06T09:57:16.815Z,11.90
2023-01-06T10:00:47.247Z,11.90
2023-01-06T10:03:34.335Z,11.90
2023-01-06T10:06:30.380Z,11.90
2023-01-06T10:09:18.964Z,11.90
2023-01-06T10:12:11.991Z,11.90
2023-01-06T10:15:00.271Z,11.90
2023-01-06T10:18:14.134Z,12.00
2023-01-06T10:21:23.310Z,12.10
2023-01-06T10:24:26.709Z,12.10
2023-01-06T10:27:40.459Z,12.10
2023-01-06T10:30:33.905Z,12.20
2023-01-06T10:36:17.650Z,12.20
2023-01-06T10:39:07.186Z,12.30
2023-01-06T10:41:52.877Z,12.30
2023-01-06T10:44:39.049Z,12.60
2023-01-06T10:47:33.196Z,12.80
2023-01-06T10:50:19.925Z,13.00
2023-01-06T10:53:05.924Z,13.20
2023-01-06T10:55:57.245Z,13.40
2023-01-06T10:58:52.821Z,13.50
2023-01-06T11:01:53.339Z,13.80
2023-01-06T11:04:52.082Z,14.00
2023-01-06T11:07:38.067Z,13.70
2023-01-06T11:10:29.439Z,13.60
2023-01-06T11:13:34.684Z,13.40
2023-01-06T11:16:25.910Z,13.40
2023-01-06T11:19:25.204Z,13.50
2023-01-06T11:25:20.374Z,13.70
2023-01-06T11:28:21.062Z,13.90
2023-01-06T11:31:15.652Z,14.30
2023-01-06T11:34:04.101Z,14.30
2023-01-06T11:36:51.787Z,14.30
2023-01-06T11:39:40.237Z,14.20
2023-01-06T11:42:26.797Z,14.50
2023-01-06T11:45:45.472Z,14.80
2023-01-06T11:49:03.417Z,15.50
2023-01-06T11:51:49.650Z,16.20
2023-01-06T11:54:39.990Z,16.50
2023-01-06T11:57:38.418Z,16.30
2023-01-06T12:00:36.775Z,16.80
2023-01-06T12:03:32.999Z,17.40
2023-01-06T12:06:30.377Z,18.00
2023-01-06T12:09:28.794Z,18.20
2023-01-06T12:12:22.676Z,17.60
2023-01-06T12:15:16.406Z,17.50
2023-01-06T12:18:07.877Z,17.10
2023-01-06T12:20:55.587Z,19.00
2023-01-06T12:23:44.173Z,21.50
2023-01-06T12:26:31.490Z,20.50
2023-01-06T12:29:20.706Z,20.60
2023-01-06T12:32:18.521Z,21.60
2023-01-06T12:35:06.775Z,20.20
2023-01-06T12:38:00.897Z,17.90
2023-01-06T12:40:55.491Z,16.60
2023-01-06T12:43:47.281Z,17.10
2023-01-06T12:46:42.811Z,19.50
2023-01-06T12:49:56.350Z,20.80
2023-01-06T12:53:12.908Z,22.50
2023-01-06T12:56:08.221Z,21.50
2023-01-06T12:59:40.634Z,22.00
2023-01-06T13:02:57.567Z,22.20
2023-01-06T13:06:09.389Z,19.80
2023-01-06T13:09:22.918Z,18.80
2023-01-06T13:12:32.079Z,18.40
2023-01-06T13:15:21.027Z,18.00
2023-01-06T13:18:23.057Z,17.70
2023-01-06T13:21:12.568Z,17.10
2023-01-06T13:24:13.426Z,17.10
2023-01-06T13:27:37.269Z,16.40
2023-01-06T13:30:59.677Z,16.20
2023-01-06T13:34:03.984Z,16.00
2023-01-06T13:37:18.303Z,15.60
2023-01-06T13:40:12.453Z,14.90
2023-01-06T13:43:09.066Z,14.00
2023-01-06T13:45:59.306Z,14.00
2023-01-06T13:48:52.581Z,13.90
2023-01-06T13:51:42.427Z,14.10
2023-01-06T13:54:40.351Z,13.80
2023-01-06T13:57:39.603Z,13.80
2023-01-06T14:00:27.792Z,13.70
2023-01-06T14:03:21.285Z,13.60
2023-01-06T14:06:22.270Z,13.20
2023-01-06T14:09:18.579Z,13.40
2023-01-06T14:12:16.630Z,13.40
2023-01-06T14:15:07.009Z,13.20
2023-01-06T14:17:52.911Z,13.00
2023-01-06T14:20:40.171Z,13.10
2023-01-06T14:23:26.074Z,13.20
2023-01-06T14:26:11.736Z,13.20
2023-01-06T14:29:36.296Z,13.20
2023-01-06T14:32:21.856Z,13.10
2023-01-06T14:35:14.058Z,13.10
2023-01-06T14:38:06.625Z,13.20
2023-01-06T14:41:13.158Z,12.70
2023-01-06T14:44:13.836Z,13.10
2023-01-06T14:47:07.020Z,13.20
2023-01-06T14:50:03.686Z,13.20
2023-01-06T14:53:32.958Z,13.20
2023-01-06T14:56:22.258Z,13.10
2023-01-06T14:59:13.610Z,13.10
2023-01-06T15:02:18.889Z,13.20
2023-01-06T15:05:06.810Z,13.10
2023-01-06T15:08:02.007Z,13.10
2023-01-06T15:10:50.339Z,13.20
2023-01-06T15:13:36.150Z,13.00
2023-01-06T15:16:30.517Z,12.80
2023-01-06T15:19:16.995Z,12.80
2023-01-06T15:22:08.082Z,12.80
2023-01-06T15:24:55.188Z,12.90
2023-01-06T15:27:48.272Z,12.80
2023-01-06T15:30:36.766Z,12.70
2023-01-06T15:33:43.995Z,12.60
2023-01-06T15:36:30.274Z,12.60
2023-01-06T15:39:21.996Z,12.60
2023-01-06T15:42:10.491Z,12.60
2023-01-06T15:44:58.908Z,12.60
2023-01-06T15:47:49.167Z,12.40
2023-01-06T15:50:35.809Z,12.20
2023-01-06T15:53:25.773Z,12.30
2023-01-06T15:56:21.565Z,12.30
2023-01-06T15:59:14.070Z,12.40
2023-01-06T16:01:59.959Z,12.50
2023-01-06T16:04:46.245Z,12.50
2023-01-06T16:07:44.646Z,12.50
2023-01-06T16:10:36.206Z,12.50
2023-01-06T16:13:27.752Z,12.50
2023-01-06T16:16:16.545Z,12.40
2023-01-06T16:19:10.460Z,12.40
2023-01-06T16:21:56.501Z,11.40
2023-01-06T16:24:42.091Z,12.40
2023-01-06T16:27:28.681Z,12.40
2023-01-06T16:30:14.200Z,12.40
2023-01-06T16:33:00.470Z,12.40
2023-01-06T16:35:51.383Z,12.50
2023-01-06T16:38:39.246Z,12.50
2023-01-06T16:41:24.935Z,12.40
2023-01-06T16:44:10.614Z,12.40
2023-01-06T16:46:57.517Z,12.40
2023-01-06T16:49:43.050Z,12.40
2023-01-06T16:52:28.725Z,12.30
2023-01-06T16:55:16.102Z,12.20
2023-01-06T16:58:13.033Z,12.20
2023-01-06T17:01:08.256Z,12.30
2023-01-06T17:03:57.254Z,12.30
2023-01-06T17:06:45.660Z,12.30
2023-01-06T17:09:32.024Z,12.40
2023-01-06T17:12:37.775Z,12.40
2023-01-06T17:15:23.408Z,12.30
2023-01-06T17:18:29.348Z,12.30
2023-01-06T17:21:17.533Z,12.40
2023-01-06T17:24:06.565Z,12.40
2023-01-06T17:27:02.326Z,12.40
2023-01-06T17:29:49.054Z,12.40
2023-01-06T17:32:41.184Z,12.40
2023-01-06T17:35:32.497Z,12.40
2023-01-06T17:38:26.001Z,12.40
2023-01-06T17:41:13.044Z,12.30
2023-01-06T17:44:01.767Z,12.40
2023-01-06T17:46:48.648Z,12.30
2023-01-06T17:49:35.654Z,12.30
2023-01-06T17:52:37.992Z,12.30
2023-01-06T17:55:44.798Z,12.30
2023-01-06T17:58:33.237Z,12.30
2023-01-06T18:01:25.936Z,12.20
2023-01-06T18:04:15.681Z,12.20
2023-01-06T18:07:01.417Z,12.10
2023-01-06T18:09:47.844Z,12.20
2023-01-06T18:12:33.442Z,12.20
2023-01-06T18:15:37.855Z,12.20
2023-01-06T18:18:38.330Z,12.10
2023-01-06T18:21:37.710Z,12.20
2023-01-06T18:24:34.488Z,12.20
2023-01-06T18:27:29.281Z,12.00
2023-01-06T18:30:15.268Z,12.00
2023-01-06T18:33:01.517Z,12.00
2023-01-06T18:35:50.674Z,12.00
2023-01-06T18:38:36.350Z,12.00
2023-01-06T18:41:21.798Z,12.00
2023-01-06T18:44:19.562Z,11.90
2023-01-06T18:47:19.595Z,11.90
2023-01-06T18:50:28.261Z,11.90
2023-01-06T18:53:13.859Z,11.90
2023-01-06T18:56:02.979Z,11.90
2023-01-06T18:58:54.105Z,11.90
2023-01-06T19:01:49.124Z,11.90
2023-01-06T19:04:37.807Z,11.90
2023-01-06T19:07:28.909Z,11.90
2023-01-06T19:10:27.824Z,11.90
2023-01-06T19:13:22.352Z,11.90
2023-01-06T19:16:22.728Z,11.90
2023-01-06T19:19:08.188Z,11.90
2023-01-06T19:22:03.128Z,11.80
2023-01-06T19:24:51.465Z,11.80
2023-01-06T19:27:44.036Z,11.80
2023-01-06T19:30:35.283Z,11.80
2023-01-06T19:33:35.265Z,11.80
2023-01-06T19:36:36.261Z,11.70
2023-01-06T19:39:30.630Z,11.70
2023-01-06T19:42:16.686Z,11.70
2023-01-06T19:45:14.811Z,11.70
2023-01-06T19:48:00.730Z,11.60
2023-01-06T19:50:46.225Z,11.60
2023-01-06T19:53:45.255Z,11.60
2023-01-06T19:56:35.827Z,11.60
2023-01-06T19:59:35.937Z,11.60
2023-01-06T20:02:35.491Z,11.70
2023-01-06T20:05:21.095Z,11.70
2023-01-06T20:08:06.738Z,11.70
2023-01-06T20:10:52.536Z,11.70
2023-01-06T20:13:38.360Z,11.60
2023-01-06T20:16:24.114Z,11.70
2023-01-06T20:19:09.773Z,11.60
2023-01-06T20:21:55.616Z,11.60
2023-01-06T20:24:41.846Z,11.60
2023-01-06T20:27:27.715Z,11.60
2023-01-06T20:30:13.807Z,11.60
2023-01-06T20:32:59.367Z,11.50
2023-01-06T20:35:45.185Z,11.60
2023-01-06T20:38:30.725Z,11.50
2023-01-06T20:41:16.665Z,11.60
2023-01-06T20:44:02.110Z,11.50
2023-01-06T20:46:47.581Z,11.50
2023-01-06T20:49:33.361Z,11.50
2023-01-06T20:52:19.536Z,11.50
2023-01-06T20:55:06.015Z,11.50
2023-01-06T20:57:51.982Z,11.40
2023-01-06T21:00:37.847Z,11.80
2023-01-06T21:03:23.719Z,11.40
2023-01-06T21:06:09.240Z,11.40
2023-01-06T21:08:54.926Z,11.30
2023-01-06T21:11:40.453Z,11.30
2023-01-06T21:14:25.983Z,11.30
2023-01-06T21:17:11.683Z,11.30
2023-01-06T21:19:57.524Z,11.30
2023-01-06T21:22:43.227Z,11.30
2023-01-06T21:25:28.867Z,11.20
2023-01-06T21:28:15.406Z,11.20
2023-01-06T21:31:01.249Z,11.20
2023-01-06T21:33:47.213Z,11.20
2023-01-06T21:36:33.156Z,11.20
2023-01-06T21:39:18.899Z,11.20
2023-01-06T21:42:23.201Z,11.20
2023-01-06T21:45:09.590Z,11.10
2023-01-06T21:47:54.777Z,11.10
2023-01-06T21:50:44.841Z,11.10
2023-01-06T21:53:31.993Z,11.10
2023-01-06T21:56:18.011Z,11.10
2023-01-06T21:59:03.951Z,11.10
2023-01-06T22:01:49.749Z,11.10
2023-01-06T22:04:35.370Z,11.10
2023-01-06T22:07:21.872Z,11.10
2023-01-06T22:10:09.557Z,11.20
2023-01-06T22:12:59.159Z,11.20
2023-01-06T22:15:45.633Z,11.20
2023-01-06T22:18:32.942Z,11.10
2023-01-06T22:21:19.005Z,11.10
2023-01-06T22:24:06.559Z,11.00
2023-01-06T22:26:51.970Z,11.00
2023-01-06T22:29:37.643Z,11.00
2023-01-06T22:32:23.479Z,11.00
2023-01-06T22:35:10.077Z,11.00
2023-01-06T22:37:55.723Z,10.90
2023-01-06T22:40:41.438Z,10.90
2023-01-06T22:43:27.077Z,10.90
2023-01-06T22:46:12.720Z,10.90
2023-01-06T22:48:58.193Z,10.90
2023-01-06T22:51:43.863Z,10.90
2023-01-06T22:54:29.754Z,10.90
2023-01-06T22:57:15.333Z,10.90
2023-01-06T23:00:01.455Z,10.80
2023-01-06T23:02:47.384Z,10.80
2023-01-06T23:05:33.047Z,10.80
2023-01-06T23:08:18.503Z,10.80
2023-01-06T23:11:11.776Z,10.80
2023-01-06T23:13:58.258Z,10.80
2023-01-06T23:16:45.313Z,10.80
2023-01-06T23:19:30.927Z,10.80
2023-01-06T23:22:16.386Z,10.80
2023-01-06T23:25:02.075Z,10.80
2023-01-06T23:27:47.537Z,10.80
2023-01-06T23:30:33.134Z,10.80
2023-01-06T23:33:18.632Z,10.80
2023-01-06T23:36:04.713Z,10.80
2023-01-06T23:38:50.720Z,10.80
2023-01-06T23:41:37.252Z,10.80
2023-01-06T23:44:23.129Z,10.80
2023-01-06T23:47:08.791Z,10.70
2023-01-06T23:49:54.282Z,10.70
2023-01-06T23:52:39.794Z,10.70
2023-01-06T23:55:25.257Z,10.60
2023-01-06T23:58:10.863Z,10.70
